createdAt,value
2019-05-15T12:13:51.519Z,7.42
2019-05-15T12:16:21.397Z,8.50
2019-05-15T12:18:51.377Z,8.30
2019-05-15T12:30:19.944Z,7.23
2019-05-15T12:33:00.232Z,7.75
2019-05-15T12:35:39.758Z,8.58
2019-05-15T12:38:10.321Z,6.50
2019-05-15T13:05:36.003Z,5.00
2019-05-15T13:08:59.528Z,5.83
2019-05-15T13:09:20.693Z,8.10
2019-05-15T13:11:39.273Z,6.33
2019-05-15T13:24:23.777Z,4.70
2019-05-15T13:49:27.973Z,4.12
2019-05-15T13:51:59.320Z,2.40
2019-05-15T13:54:32.081Z,3.87
2019-05-15T13:57:03.254Z,4.65
2019-05-15T13:59:33.193Z,2.85
2019-05-15T14:02:03.132Z,4.00
2019-05-15T14:04:38.490Z,1.70
2019-05-15T14:07:08.646Z,3.90
2019-05-15T14:09:44.390Z,5.12
2019-05-15T14:12:13.040Z,5.10
2019-05-15T14:14:43.223Z,5.72
2019-05-15T14:17:14.557Z,4.60
2019-05-15T14:20:02.478Z,3.83
2019-05-15T14:22:35.542Z,3.45
2019-05-15T14:25:08.823Z,3.25
2019-05-15T14:27:39.859Z,3.35
2019-05-15T14:30:10.920Z,3.08
2019-05-15T14:32:40.844Z,5.28
2019-05-15T14:35:10.683Z,4.25
2019-05-15T14:37:40.609Z,4.07
2019-05-15T14:40:10.867Z,3.35
2019-05-15T14:42:41.843Z,4.10
2019-05-15T14:45:12.168Z,3.08
2019-05-15T14:47:42.099Z,3.60
2019-05-15T14:50:13.062Z,3.58
2019-05-15T14:52:42.971Z,5.47
2019-05-15T14:55:13.147Z,5.17
2019-05-15T14:57:48.504Z,6.35
2019-05-15T15:00:19.992Z,3.47
2019-05-15T15:02:52.058Z,3.22
2019-05-15T15:05:23.135Z,7.75
2019-05-15T15:07:53.221Z,6.62
2019-05-15T15:10:23.453Z,6.95
2019-05-15T15:12:53.361Z,9.90
2019-05-15T15:15:23.216Z,10.98
2019-05-15T15:17:58.138Z,5.40
2019-05-15T15:20:28.584Z,10.00
2019-05-15T15:22:58.898Z,7.67
2019-05-15T15:25:28.861Z,6.12
2019-05-15T15:28:04.496Z,8.88
2019-05-15T15:30:40.799Z,6.47
2019-05-15T15:33:15.086Z,6.72
2019-05-15T15:35:49.266Z,6.45
2019-05-15T15:38:43.726Z,5.63
2019-05-15T15:41:12.450Z,6.90
2019-05-15T15:45:19.381Z,10.57
2019-05-15T15:47:53.518Z,9.98
2019-05-15T15:50:28.773Z,10.32
2019-05-15T15:52:59.581Z,12.75
2019-05-15T15:55:34.488Z,12.82
2019-05-15T15:58:08.758Z,12.47
2019-05-15T16:00:39.110Z,14.18
2019-05-15T16:03:09.012Z,14.60
2019-05-15T16:05:38.959Z,14.65
2019-05-15T16:08:28.545Z,12.80
2019-05-15T16:10:59.093Z,14.63
2019-05-15T16:13:29.396Z,16.62
2019-05-15T16:15:59.475Z,14.80
2019-05-15T16:18:29.447Z,13.40
2019-05-15T16:20:59.386Z,15.70
2019-05-15T16:23:29.285Z,14.80
2019-05-15T16:26:01.012Z,13.03
2019-05-15T16:28:38.807Z,16.23
2019-05-15T16:31:09.021Z,15.00
2019-05-15T16:33:39.110Z,13.50
2019-05-15T16:36:09.084Z,13.65
2019-05-15T16:38:39.225Z,14.47
2019-05-15T16:41:09.232Z,17.57
2019-05-15T16:43:39.146Z,14.05
2019-05-15T16:46:09.327Z,11.93
2019-05-15T16:48:43.423Z,15.28
2019-05-15T16:51:13.368Z,13.62
2019-05-15T16:53:48.935Z,12.03
2019-05-15T16:56:19.182Z,12.58
2019-05-15T16:58:49.226Z,10.57
2019-05-15T17:01:19.222Z,13.40
2019-05-15T17:03:49.162Z,16.95
2019-05-15T17:06:19.393Z,13.48
2019-05-15T17:09:20.843Z,13.70
2019-05-15T17:11:40.442Z,12.65
2019-05-15T17:14:10.312Z,12.30
2019-05-15T17:16:42.047Z,13.03
2019-05-15T17:19:35.642Z,13.32
2019-05-15T17:22:08.983Z,12.70
2019-05-15T17:24:41.647Z,11.48
2019-05-15T17:27:15.790Z,12.55
2019-05-15T17:29:45.778Z,14.47
2019-05-15T17:32:18.477Z,13.08
2019-05-15T17:34:49.470Z,10.93
2019-05-15T17:37:19.385Z,11.80
2019-05-15T17:39:53.271Z,11.25
2019-05-15T17:42:23.145Z,14.30
2019-05-15T17:44:53.016Z,9.45
2019-05-15T17:47:22.909Z,11.22
2019-05-15T17:50:29.252Z,11.90
2019-05-15T17:53:02.133Z,10.80
2019-05-15T17:56:02.439Z,8.88
2019-05-15T17:58:38.253Z,10.82
2019-05-15T18:01:08.855Z,8.05
2019-05-15T18:03:39.406Z,11.38
2019-05-15T18:06:09.433Z,9.00
2019-05-15T18:08:39.875Z,8.95
2019-05-15T18:11:09.809Z,8.48
2019-05-15T18:13:41.035Z,8.45
2019-05-15T18:16:13.433Z,9.28
2019-05-15T18:18:44.628Z,8.30
2019-05-15T18:21:19.709Z,8.57
2019-05-15T18:23:53.911Z,6.92
2019-05-15T18:26:23.760Z,6.70
2019-05-15T18:28:58.459Z,7.10
2019-05-15T18:31:29.989Z,6.80
2019-05-15T18:33:59.883Z,8.45
2019-05-15T18:36:29.789Z,6.58
2019-05-15T18:38:59.757Z,8.65
2019-05-15T18:41:29.688Z,8.98
2019-05-15T18:43:59.522Z,7.55
2019-05-15T18:46:29.450Z,6.77
2019-05-15T18:49:03.479Z,7.12
2019-05-15T18:51:33.391Z,8.05
2019-05-15T18:54:03.302Z,7.97
2019-05-15T18:56:34.391Z,8.38
2019-05-15T18:59:12.701Z,9.05
2019-05-15T19:02:00.462Z,7.08
2019-05-15T19:04:28.895Z,9.10
2019-05-15T19:06:58.874Z,7.37
2019-05-15T19:09:35.186Z,6.50
2019-05-15T19:12:09.303Z,6.50
2019-05-15T19:14:40.508Z,6.40
2019-05-15T19:17:10.374Z,7.28
2019-05-15T19:19:40.386Z,5.80
2019-05-15T19:22:10.318Z,6.62
2019-05-15T19:24:40.327Z,7.42
2019-05-15T19:27:10.184Z,5.97
2019-05-15T19:29:48.008Z,7.75
2019-05-15T19:32:54.237Z,7.22
2019-05-15T19:35:24.250Z,8.68
2019-05-15T19:37:54.133Z,7.60
2019-05-15T19:40:24.053Z,6.40
2019-05-15T19:42:53.832Z,7.47
2019-05-15T19:45:24.711Z,8.00
2019-05-15T19:47:54.654Z,6.08
2019-05-15T19:50:24.965Z,9.45
2019-05-15T19:53:00.707Z,6.58
2019-05-15T19:55:30.617Z,5.75
2019-05-15T19:58:08.674Z,6.67
2019-05-15T20:00:38.826Z,7.40
2019-05-15T20:03:10.868Z,9.43
2019-05-15T20:05:40.766Z,8.23
2019-05-15T20:08:15.899Z,7.37
2019-05-15T20:10:48.557Z,6.50
2019-05-15T20:13:18.849Z,6.67
2019-05-15T20:15:51.262Z,6.92
2019-05-15T20:18:21.204Z,6.87
2019-05-15T20:20:51.124Z,5.85
2019-05-15T20:23:21.118Z,6.65
2019-05-15T20:25:51.101Z,8.00
2019-05-15T20:28:34.549Z,7.75
2019-05-15T20:31:04.373Z,7.80
2019-05-15T20:33:34.284Z,8.28
2019-05-15T20:36:04.131Z,8.17
2019-05-15T20:38:39.521Z,8.30
2019-05-15T20:41:09.635Z,7.60
2019-05-15T20:43:41.028Z,9.30
2019-05-15T20:46:10.855Z,6.10
2019-05-15T20:48:40.798Z,5.47
2019-05-15T20:51:10.732Z,6.28
2019-05-15T20:53:40.575Z,10.10
2019-05-15T20:56:10.484Z,8.43
2019-05-15T20:59:18.224Z,7.03
2019-05-15T21:01:51.203Z,8.35
2019-05-15T21:04:23.730Z,7.33
2019-05-15T21:06:52.644Z,9.67
2019-05-15T21:09:40.415Z,8.35
2019-05-15T21:12:11.304Z,9.50
2019-05-15T21:14:41.204Z,8.28
2019-05-15T21:17:11.051Z,7.85
2019-05-15T21:19:40.993Z,11.73
2019-05-15T21:22:11.105Z,6.90
2019-05-15T21:24:43.051Z,6.65
2019-05-15T21:27:13.250Z,7.62
2019-05-15T21:30:01.544Z,10.13
2019-05-15T21:32:31.674Z,8.15
2019-05-15T21:35:01.592Z,7.80
2019-05-15T21:37:31.448Z,8.78
2019-05-15T21:40:22.784Z,6.62
2019-05-15T21:42:52.706Z,8.80
2019-05-15T21:45:40.955Z,7.80
2019-05-15T21:48:11.957Z,7.08
2019-05-15T21:50:42.397Z,7.27
2019-05-15T21:53:12.678Z,7.67
2019-05-15T21:55:42.533Z,8.65
2019-05-15T21:58:12.486Z,7.95
2019-05-15T22:00:45.462Z,7.62
2019-05-15T22:03:19.487Z,6.97
2019-05-15T22:05:48.766Z,9.33
2019-05-15T22:09:18.414Z,7.00
2019-05-15T22:11:49.755Z,7.62
2019-05-15T22:14:20.817Z,8.68
2019-05-15T22:16:50.653Z,9.33
2019-05-15T22:19:20.878Z,8.35
2019-05-15T22:21:50.823Z,7.37
2019-05-15T22:24:24.424Z,8.08
2019-05-15T22:26:54.553Z,8.40
2019-05-15T22:29:24.496Z,7.95
2019-05-15T22:31:54.425Z,7.53
2019-05-15T22:34:24.377Z,8.33
2019-05-15T22:36:54.250Z,7.60
2019-05-15T22:39:28.252Z,8.80
2019-05-15T22:41:58.541Z,7.83
2019-05-15T22:44:28.497Z,8.20
2019-05-15T22:46:58.343Z,10.43
2019-05-15T22:49:35.041Z,8.18
2019-05-15T22:52:04.964Z,7.92
2019-05-15T22:54:34.814Z,6.55
2019-05-15T22:57:04.753Z,5.58
2019-05-15T22:59:40.877Z,10.03
2019-05-15T23:02:10.765Z,7.85
2019-05-15T23:04:40.673Z,8.27
2019-05-15T23:07:10.529Z,10.28
2019-05-15T23:09:48.974Z,8.58
2019-05-15T23:12:18.567Z,9.15
2019-05-15T23:14:48.632Z,8.70
2019-05-15T23:17:18.525Z,8.70
2019-05-15T23:19:52.132Z,8.58
2019-05-15T23:22:22.012Z,8.45
2019-05-15T23:24:52.247Z,8.53
2019-05-15T23:27:22.136Z,9.08
2019-05-15T23:29:52.098Z,8.25
2019-05-15T23:32:21.990Z,11.25
2019-05-15T23:34:51.893Z,8.83
2019-05-15T23:37:21.739Z,8.58
2019-05-15T23:39:51.695Z,7.60
2019-05-15T23:42:21.581Z,7.30
2019-05-15T23:44:51.470Z,8.88
2019-05-15T23:47:21.353Z,7.85
2019-05-15T23:49:51.277Z,7.60
2019-05-15T23:52:21.195Z,8.50
2019-05-15T23:54:51.089Z,8.70
2019-05-15T23:57:20.929Z,7.63
2019-05-15T23:59:56.372Z,7.50
